Time;durP1;ratioP1;P1;durP2;ratioP2;P2;SDS_P1;SDS_P2;PMS_P1;PMS_P2;Temp;Humidity;BMP_temperature;BMP_pressure;BME280_temperature;BME280_humidity;BME280_pressure;Samples;Min_cycle;Max_cycle;Signal;HPM_P1;HPM_P2
2023/01/26 07:32:00;;;;;;;24.08;10.60;;;;;;;-1.92;100.00;99470.38;5102930;27;20367;-78
2023/01/26 07:34:26;;;;;;;27.92;10.18;;;;;;;-1.92;100.00;99449.91;5106467;28;20060;-78
2023/01/26 07:36:53;;;;;;;34.00;10.85;;;;;;;-1.69;100.00;99483.06;5107751;28;20052;-78
2023/01/26 07:39:19;;;;;;;29.35;11.70;;;;;;;-1.65;100.00;99471.25;5109104;28;20102;-78
2023/01/26 07:41:46;;;;;;;28.42;10.18;;;;;;;-1.70;100.00;99465.38;5108725;28;20506;-78
2023/01/26 07:44:12;;;;;;;26.75;9.48;;;;;;;-1.59;100.00;99478.00;5108312;28;20051;-78
2023/01/26 07:46:40;;;;;;;25.63;8.65;;;;;;;-1.44;100.00;99478.81;5099866;28;20048;-78
2023/01/26 07:49:08;;;;;;;24.27;9.38;;;;;;;-1.43;100.00;99472.50;5108757;28;20075;-78
2023/01/26 07:51:35;;;;;;;26.33;10.23;;;;;;;-1.57;100.00;99462.75;5102003;28;20072;-78
2023/01/26 07:54:01;;;;;;;27.50;9.80;;;;;;;-1.45;100.00;99472.63;5107946;28;20043;-78
2023/01/26 07:56:28;;;;;;;24.63;9.57;;;;;;;-1.41;100.00;99470.63;5108760;28;20062;-78
2023/01/26 07:58:55;;;;;;;23.15;10.60;;;;;;;-1.37;100.00;99468.59;5108468;28;20424;-78
2023/01/26 08:01:22;;;;;;;31.50;11.45;;;;;;;-1.43;100.00;99464.50;5104729;28;20074;-78
2023/01/26 08:03:52;;;;;;;25.27;10.63;;;;;;;-1.22;100.00;99491.56;5107789;28;20055;-78
2023/01/26 08:06:20;;;;;;;31.80;10.93;;;;;;;-1.15;100.00;99478.69;5101250;28;20048;-78
2023/01/26 08:08:49;;;;;;;25.85;10.55;;;;;;;-1.10;100.00;99498.78;5106921;28;20043;-78
2023/01/26 08:11:17;;;;;;;29.40;10.13;;;;;;;-1.29;100.00;99452.94;5108281;28;20402;-78
2023/01/26 08:13:43;;;;;;;29.35;11.35;;;;;;;-1.15;100.00;99492.03;5107935;28;20070;-78
2023/01/26 08:16:11;;;;;;;28.08;11.18;;;;;;;-1.11;100.00;99482.88;5107946;28;20063;-78
2023/01/26 08:18:38;;;;;;;30.17;10.32;;;;;;;-1.13;100.00;99472.31;5107110;28;20108;-78
2023/01/26 08:21:05;;;;;;;27.02;10.60;;;;;;;-1.23;100.00;99457.00;5106101;28;20044;-78
2023/01/26 08:23:33;;;;;;;24.35;10.27;;;;;;;-1.12;100.00;99466.00;5107776;28;20438;-78
2023/01/26 08:26:01;;;;;;;29.05;12.20;;;;;;;-1.04;100.00;99472.63;5107767;28;20047;-78
2023/01/26 08:28:27;;;;;;;25.30;10.68;;;;;;;-1.15;100.00;99462.69;5108286;28;20056;-78
2023/01/26 08:30:54;;;;;;;22.85;10.23;;;;;;;-1.18;100.00;99446.88;5107876;28;20055;-78
2023/01/26 08:33:21;;;;;;;26.42;9.77;;;;;;;-1.08;100.00;99459.50;5095291;28;20063;-78
2023/01/26 08:35:47;;;;;;;25.25;10.68;;;;;;;-1.11;100.00;99475.72;5097313;28;20048;-78
2023/01/26 08:38:14;;;;;;;30.67;10.45;;;;;;;-1.19;100.00;99448.72;5100941;28;20054;-78
2023/01/26 08:40:42;;;;;;;17.75;8.60;;;;;;;-1.30;100.00;99443.22;5108159;28;20055;-78
2023/01/26 08:43:08;;;;;;;24.50;8.73;;;;;;;-1.27;100.00;99461.69;5094577;28;20054;-78
2023/01/26 08:45:35;;;;;;;25.13;9.07;;;;;;;-1.20;100.00;99446.16;5094130;28;20050;-78
2023/01/26 08:48:01;;;;;;;22.63;9.32;;;;;;;-1.23;100.00;99447.19;5093972;28;20056;-78
2023/01/26 08:50:28;;;;;;;23.98;9.73;;;;;;;-1.17;100.00;99446.78;5077413;28;20040;-78
2023/01/26 08:52:57;;;;;;;20.42;9.07;;;;;;;-1.20;100.00;99452.31;5085517;28;20101;-78
2023/01/26 08:55:24;;;;;;;20.65;8.10;;;;;;;-1.16;100.00;99450.28;5087559;28;20119;-78
2023/01/26 08:57:55;;;;;;;20.45;8.65;;;;;;;-1.09;100.00;99462.28;5093879;28;20063;-77
2023/01/26 09:00:23;;;;;;;19.45;8.68;;;;;;;-1.18;100.00;99450.41;5094292;28;20067;-78
2023/01/26 09:02:50;;;;;;;30.83;10.98;;;;;;;-1.03;100.00;99466.34;5093249;28;20134;-78
2023/01/26 09:05:17;;;;;;;27.27;10.75;;;;;;;-1.03;100.00;99458.34;5079861;28;20044;-78
2023/01/26 09:07:44;;;;;;;23.98;9.73;;;;;;;-1.05;100.00;99457.56;5073629;28;20392;-77
2023/01/26 09:10:11;;;;;;;29.83;11.02;;;;;;;-1.11;100.00;99443.69;5072521;28;20098;-78
2023/01/26 09:12:38;;;;;;;29.25;10.43;;;;;;;-1.04;100.00;99456.63;5091030;28;20048;-77
2023/01/26 09:15:07;;;;;;;35.92;13.48;;;;;;;-0.99;100.00;99465.19;5093660;28;20052;-77
2023/01/26 09:17:34;;;;;;;29.52;12.90;;;;;;;-0.88;100.00;99453.78;5093377;28;20487;-78
2023/01/26 09:20:01;;;;;;;24.10;11.20;;;;;;;-0.97;100.00;99450.75;5081105;28;20057;-77
2023/01/26 09:22:28;;;;;;;29.13;11.52;;;;;;;-1.07;100.00;99442.53;5072774;28;20426;-77
2023/01/26 09:24:54;;;;;;;26.25;11.00;;;;;;;-0.92;100.00;99471.78;5074946;28;20418;-78
2023/01/26 09:27:21;;;;;;;27.13;10.82;;;;;;;-1.01;100.00;99451.94;5091673;28;20054;-77
2023/01/26 09:29:48;;;;;;;26.80;11.77;;;;;;;-0.95;100.00;99472.88;5092810;28;20483;-78
2023/01/26 09:32:15;;;;;;;19.80;7.30;;;;;;;-1.15;100.00;99476.88;5092337;28;20044;-77
2023/01/26 09:34:42;;;;;;;23.58;10.02;;;;;;;-1.03;100.00;99475.19;5093355;28;20059;-78
2023/01/26 09:37:09;;;;;;;21.27;8.68;;;;;;;-1.03;100.00;99474.34;5089521;28;20055;-78
2023/01/26 09:39:35;;;;;;;22.88;10.43;;;;;;;-1.08;100.00;99472.00;5078072;28;20063;-77
2023/01/26 09:42:25;;;;;;;24.05;9.18;;;;;;;-0.99;100.00;99478.53;5092617;28;20052;-77
2023/01/26 09:44:59;;;;;;;20.85;8.85;;;;;;;-1.27;100.00;99459.88;5091066;28;20058;-77
2023/01/26 09:47:51;;;;;;;29.35;11.68;;;;;;;-1.17;100.00;99461.94;5093037;28;20399;-78
2023/01/26 09:50:21;;;;;;;28.83;11.55;;;;;;;-1.11;100.00;99462.38;5093005;28;20145;-78
2023/01/26 09:52:54;;;;;;;24.15;10.88;;;;;;;-1.08;100.00;99475.50;5073938;28;20072;-77
2023/01/26 09:55:23;;;;;;;29.13;11.63;;;;;;;-1.25;100.00;99452.63;5079638;28;20054;-78
2023/01/26 09:57:52;;;;;;;31.65;11.20;;;;;;;-0.97;100.00;99484.63;5084544;28;20055;-78
2023/01/26 10:00:22;;;;;;;27.07;10.50;;;;;;;-1.15;100.00;99460.03;5090602;28;20052;-77
2023/01/26 10:03:04;;;;;;;29.63;12.13;;;;;;;-1.02;100.00;99476.91;5092217;28;20281;-77
2023/01/26 10:05:41;;;;;;;27.90;11.38;;;;;;;-1.15;100.00;99455.53;5089964;28;20054;-77
2023/01/26 10:08:13;;;;;;;25.65;11.85;;;;;;;-1.12;100.00;99467.81;5092254;28;20059;-77
2023/01/26 10:10:46;;;;;;;25.05;11.02;;;;;;;-1.06;100.00;99454.06;5092752;28;20497;-77
2023/01/26 10:13:14;;;;;;;24.20;10.82;;;;;;;-1.08;100.00;99456.00;5091832;28;20044;-77
2023/01/26 10:15:43;;;;;;;24.77;10.88;;;;;;;-0.96;100.00;99473.84;5087032;28;20068;-77
2023/01/26 10:18:18;;;;;;;24.65;10.05;;;;;;;-0.98;100.00;99451.75;5092028;28;20596;-77
2023/01/26 10:20:49;;;;;;;28.38;10.02;;;;;;;-0.91;100.00;99450.34;5090962;28;20074;-77
2023/01/26 10:23:19;;;;;;;25.83;9.52;;;;;;;-0.88;100.00;99464.44;5088810;28;20050;-77
2023/01/26 10:25:46;;;;;;;25.90;9.75;;;;;;;-1.17;100.00;99444.13;5092555;28;20063;-77
2023/01/26 10:28:14;;;;;;;24.00;9.57;;;;;;;-0.93;100.00;99478.13;5091990;28;20479;-77
2023/01/26 10:30:43;;;;;;;25.75;9.35;;;;;;;-1.12;100.00;99451.81;5092061;28;20054;-77
2023/01/26 10:33:17;;;;;;;25.90;10.70;;;;;;;-1.08;100.00;99467.50;5090010;28;20048;-77
2023/01/26 10:35:44;;;;;;;25.52;9.88;;;;;;;-1.08;100.00;99472.00;5082588;28;20059;-77
2023/01/26 10:38:39;;;;;;;29.42;11.02;;;;;;;-1.25;100.00;99468.66;5090043;28;20064;-77
2023/01/26 10:41:19;;;;;;;25.92;10.65;;;;;;;-1.13;100.00;99469.66;5086115;28;20517;-77
2023/01/26 10:43:50;;;;;;;;;;;;;;;-1.04;100.00;99470.81;5079454;28;20045;-77
2023/01/26 10:46:24;;;;;;;31.50;10.52;;;;;;;-1.22;100.00;99464.06;5071748;28;19920;-77
2023/01/26 10:48:55;;;;;;;29.00;12.73;;;;;;;-1.15;100.00;99444.84;5071800;28;20052;-77
2023/01/26 10:51:26;;;;;;;30.48;11.00;;;;;;;-0.96;100.00;99464.97;5071464;28;20059;-77
2023/01/26 10:54:30;;;;;;;24.80;10.48;;;;;;;-1.06;100.00;99467.41;5082097;28;20058;-77
2023/01/26 10:56:58;;;;;;;32.63;11.68;;;;;;;-1.09;100.00;99440.94;5074827;28;20048;-77
2023/01/26 10:59:32;;;;;;;30.55;11.20;;;;;;;-1.08;100.00;99454.16;5091234;28;20134;-77
2023/01/26 11:02:01;;;;;;;25.42;9.73;;;;;;;-1.08;100.00;99448.81;5091877;28;20048;-77
2023/01/26 11:04:30;;;;;;;18.45;8.55;;;;;;;-1.05;100.00;99439.78;5091064;28;20055;-77
2023/01/26 11:07:19;;;;;;;28.60;11.05;;;;;;;-0.98;100.00;99459.75;5089351;28;20411;-77
2023/01/26 11:09:46;;;;;;;30.63;9.50;;;;;;;-1.08;100.00;99453.31;5090282;28;20051;-77
2023/01/26 11:12:18;;;;;;;24.98;10.02;;;;;;;-1.15;100.00;99431.50;5090706;28;20055;-77
2023/01/26 11:15:01;;;;;;;16.95;7.07;;;;;;;-1.28;100.00;99423.50;5090488;28;20044;-77
2023/01/26 11:17:33;;;;;;;28.10;10.30;;;;;;;-1.18;100.00;99430.88;5091534;28;20063;-77
2023/01/26 11:20:21;;;;;;;21.33;9.60;;;;;;;-1.11;100.00;99424.19;5091527;28;20052;-77
2023/01/26 11:22:58;;;;;;;25.20;9.65;;;;;;;-1.10;100.00;99433.88;5087481;28;20388;-77
2023/01/26 11:25:30;;;;;;;20.50;9.13;;;;;;;-1.19;100.00;99422.03;5083598;28;20048;-77
2023/01/26 11:28:14;;;;;;;24.88;8.73;;;;;;;-1.22;100.00;99419.53;5091209;28;20048;-77
2023/01/26 11:30:58;;;;;;;23.33;8.18;;;;;;;-1.04;100.00;99429.94;5091533;28;20055;-77
2023/01/26 11:33:33;;;;;;;26.95;9.60;;;;;;;-1.02;100.00;99436.00;5086861;28;20052;-77
2023/01/26 11:36:12;;;;;;;20.90;8.13;;;;;;;-1.10;100.00;99436.53;5091117;28;20066;-77
2023/01/26 11:38:41;;;;;;;31.15;10.05;;;;;;;-1.09;100.00;99447.09;5091158;28;20044;-77
2023/01/26 11:41:34;;;;;;;23.80;10.52;;;;;;;-1.21;100.00;99409.75;5085768;28;20041;-77
2023/01/26 11:44:19;;;;;;;27.50;13.45;;;;;;;-1.22;100.00;99411.53;5083666;28;20063;-77
2023/01/26 11:47:04;;;;;;;22.17;8.57;;;;;;;-1.29;100.00;99419.13;5091370;28;20131;-77
2023/01/26 11:49:54;;;;;;;21.42;10.60;;;;;;;-1.33;100.00;99398.94;5088228;28;20495;-77
2023/01/26 11:52:28;;;;;;;;;;;;;;;-1.14;100.00;99430.56;5091105;28;20306;-77
2023/01/26 11:55:18;;;;;;;25.80;9.63;;;;;;;-1.07;100.00;99418.53;5085781;28;19928;-77
2023/01/26 11:57:56;;;;;;;22.90;9.45;;;;;;;-1.04;100.00;99405.91;5090729;28;20059;-77
2023/01/26 12:00:25;;;;;;;22.83;7.75;;;;;;;-1.07;100.00;99398.97;5091157;28;20060;-77
2023/01/26 12:02:59;;;;;;;19.50;8.80;;;;;;;-1.03;100.00;99391.63;5089317;28;20059;-77
2023/01/26 12:05:29;;;;;;;17.85;8.90;;;;;;;-1.14;100.00;99387.88;5090881;28;20052;-77
2023/01/26 12:08:02;;;;;;;22.08;8.38;;;;;;;-1.01;100.00;99403.91;5090970;28;20044;-77
2023/01/26 12:10:33;;;;;;;17.02;6.53;;;;;;;-1.06;100.00;99395.34;5085192;28;20048;-77
2023/01/26 12:13:10;;;;;;;18.02;8.23;;;;;;;-1.09;100.00;99379.56;5089529;28;20040;-77
2023/01/26 12:15:41;;;;;;;55.22;32.83;;;;;;;-1.12;100.00;99377.94;5091157;28;20048;-77
2023/01/26 12:18:16;;;;;;;21.38;9.63;;;;;;;-0.82;100.00;99398.13;5093693;28;20060;-77
2023/01/26 12:20:45;;;;;;;17.33;8.52;;;;;;;-1.07;100.00;99365.16;5094904;28;20052;-77
2023/01/26 12:23:26;;;;;;;12.52;6.35;;;;;;;-0.98;100.00;99370.81;5093942;28;20066;-77
2023/01/26 12:25:57;;;;;;;19.75;8.02;;;;;;;-0.97;100.00;99372.53;5092786;28;20090;-77
2023/01/26 12:28:28;;;;;;;17.35;7.07;;;;;;;-1.08;100.00;99365.25;5092234;28;20051;-77
2023/01/26 12:31:02;;;;;;;17.52;6.97;;;;;;;-0.90;100.00;99365.81;5091670;28;20050;-77
2023/01/26 12:33:29;;;;;;;16.10;6.90;;;;;;;-0.85;100.00;99363.66;5094069;28;20052;-77
2023/01/26 12:36:28;;;;;;;20.25;7.30;;;;;;;-0.84;100.00;99361.81;5094498;28;20510;-78
2023/01/26 12:39:13;;;;;;;15.23;6.38;;;;;;;-0.58;100.00;99371.53;5089362;28;20402;-78
2023/01/26 12:42:00;;;;;;;11.30;4.88;;;;;;;-0.73;100.00;99360.13;5093100;28;20048;-78
2023/01/26 12:44:36;;;;;;;13.45;6.10;;;;;;;-0.80;100.00;99361.53;5080915;28;20052;-78
2023/01/26 12:47:10;;;;;;;11.40;4.90;;;;;;;-0.66;100.00;99378.38;5092685;28;20052;-78
2023/01/26 12:49:43;;;;;;;12.32;5.90;;;;;;;-0.59;100.00;99363.63;5094301;28;20494;-78
2023/01/26 12:52:17;;;;;;;11.93;5.43;;;;;;;-0.84;100.00;99370.72;5093256;28;20380;-78
2023/01/26 12:54:50;;;;;;;15.00;6.40;;;;;;;-0.98;100.00;99331.66;5091654;28;20093;-78
2023/01/26 12:57:21;;;;;;;12.02;5.40;;;;;;;-0.92;100.00;99349.91;5093962;28;20414;-78
2023/01/26 12:59:48;;;;;;;15.18;5.75;;;;;;;-0.73;100.00;99373.47;5091686;28;20107;-78
2023/01/26 13:02:25;;;;;;;11.70;5.60;;;;;;;-0.84;100.00;99353.81;5093153;28;20058;-78
2023/01/26 13:04:52;;;;;;;20.05;6.88;;;;;;;-0.78;100.00;99350.75;5081494;28;20485;-78
2023/01/26 13:07:36;;;;;;;19.17;7.20;;;;;;;-0.70;100.00;99356.38;5073673;28;20057;-78
2023/01/26 13:10:22;;;;;;;15.02;6.88;;;;;;;-0.95;100.00;99339.44;5078366;28;20048;-78
2023/01/26 13:13:01;;;;;;;14.52;5.65;;;;;;;-0.89;100.00;99354.16;5093254;28;20059;-78
2023/01/26 13:15:29;;;;;;;10.75;4.93;;;;;;;-0.81;100.00;99338.47;5092523;28;20048;-78
2023/01/26 13:17:58;;;;;;;9.23;5.38;;;;;;;-0.76;100.00;99340.78;5093957;28;20050;-78
2023/01/26 13:20:28;;;;;;;16.63;6.13;;;;;;;-0.90;100.00;99347.97;5092721;28;20051;-78
2023/01/26 13:22:56;;;;;;;12.90;5.43;;;;;;;-0.89;100.00;99340.78;5073065;28;20048;-78
2023/01/26 13:25:33;;;;;;;12.00;5.82;;;;;;;-1.00;100.00;99327.38;5088571;28;20062;-78
2023/01/26 13:28:01;;;;;;;10.95;5.35;;;;;;;-0.93;100.00;99317.97;5073481;28;20049;-78
2023/01/26 13:30:44;;;;;;;15.52;6.18;;;;;;;-0.70;100.00;99342.19;5081340;28;20048;-78
2023/01/26 13:33:16;;;;;;;12.02;5.55;;;;;;;-0.85;100.00;99320.94;5092247;28;20475;-78
2023/01/26 13:35:44;;;;;;;14.48;5.53;;;;;;;-0.90;100.00;99323.09;5089581;28;20048;-78
2023/01/26 13:38:17;;;;;;;10.20;5.32;;;;;;;-0.64;100.00;99331.91;5073213;28;20123;-78
2023/01/26 13:40:49;;;;;;;9.10;5.05;;;;;;;-0.77;100.00;99344.41;5092976;28;20148;-78
2023/01/26 13:43:21;;;;;;;10.77;5.50;;;;;;;-0.82;100.00;99328.72;5092562;28;20438;-78
2023/01/26 13:45:58;;;;;;;9.07;4.68;;;;;;;-0.69;100.00;99343.88;5093033;28;20052;-78
2023/01/26 13:48:36;;;;;;;8.38;4.60;;;;;;;-0.68;100.00;99350.94;5089388;28;20052;-78
2023/01/26 13:51:03;;;;;;;9.60;5.72;;;;;;;-0.82;100.00;99317.22;5092941;28;20075;-78
2023/01/26 13:53:35;;;;;;;10.73;4.70;;;;;;;-0.82;100.00;99338.56;5088137;28;20048;-78
2023/01/26 13:56:19;;;;;;;10.50;4.55;;;;;;;-0.72;100.00;99344.97;5092409;28;20455;-78
2023/01/26 13:58:45;;;;;;;7.70;4.28;;;;;;;-0.64;100.00;99344.41;5093014;28;20058;-78
2023/01/26 14:01:15;;;;;;;7.72;4.05;;;;;;;-0.51;100.00;99355.94;5092529;28;20044;-78
2023/01/26 14:03:42;;;;;;;10.23;4.50;;;;;;;-0.77;100.00;99329.28;5086173;28;20045;-78
2023/01/26 14:06:13;;;;;;;10.52;4.57;;;;;;;-0.62;100.00;99321.97;5092416;28;20078;-78
2023/01/26 14:08:39;;;;;;;10.38;5.18;;;;;;;-0.53;100.00;99341.81;5091060;28;20055;-78
2023/01/26 14:11:17;;;;;;;10.25;4.75;;;;;;;-0.64;99.94;99323.91;5091605;28;20410;-78
2023/01/26 14:13:46;;;;;;;10.57;5.53;;;;;;;-0.67;100.00;99331.28;5091859;28;20052;-78
2023/01/26 14:16:21;;;;;;;10.73;4.35;;;;;;;-0.77;100.00;99347.09;5092234;28;20054;-78
2023/01/26 14:18:48;;;;;;;9.10;4.32;;;;;;;-0.80;100.00;99355.31;5092813;28;20048;-78
2023/01/26 14:21:19;;;;;;;18.58;12.52;;;;;;;-0.86;100.00;99353.94;5087803;28;20407;-78
2023/01/26 14:23:45;;;;;;;13.40;6.03;;;;;;;-0.75;100.00;99372.72;5089638;28;20044;-78
2023/01/26 14:26:19;;;;;;;14.13;5.15;;;;;;;-0.86;100.00;99343.25;5092136;28;20051;-77
2023/01/26 14:28:47;;;;;;;20.13;8.60;;;;;;;-0.71;100.00;99357.34;5073625;28;20515;-77
2023/01/26 14:31:18;;;;;;;14.00;6.05;;;;;;;-0.67;100.00;99345.47;5071648;28;20056;-77
2023/01/26 14:33:45;;;;;;;29.65;16.92;;;;;;;-0.78;100.00;99345.41;5074599;28;20051;-77
2023/01/26 14:36:14;;;;;;;39.97;16.80;;;;;;;-1.02;100.00;99339.94;5088253;28;20040;-77
2023/01/26 14:38:43;;;;;;;71.72;22.42;;;;;;;-0.98;100.00;99338.78;5089110;28;20044;-77
2023/01/26 14:41:18;;;;;;;25.17;9.48;;;;;;;-0.94;100.00;99332.28;5088193;28;20051;-80
2023/01/26 14:43:54;;;;;;;24.73;9.85;;;;;;;-0.79;100.00;99351.69;5079981;28;20105;-86
2023/01/26 14:46:25;;;;;;;15.45;6.93;;;;;;;-0.54;100.00;99359.69;5084202;28;20051;-80
2023/01/26 14:48:59;;;;;;;30.50;12.45;;;;;;;-0.68;100.00;99342.91;5089216;28;20063;-81
2023/01/26 14:51:27;;;;;;;42.22;17.23;;;;;;;-0.72;100.00;99374.34;5089040;28;20051;-80
2023/01/26 14:53:57;;;;;;;14.55;7.15;;;;;;;-0.67;100.00;99363.34;5084908;28;20130;-81
2023/01/26 14:56:32;;;;;;;17.90;7.82;;;;;;;-0.67;100.00;99352.66;5083302;28;20140;-81
2023/01/26 14:58:59;;;;;;;10.57;5.53;;;;;;;-0.76;100.00;99375.50;5081385;28;20410;-81
2023/01/26 15:01:26;;;;;;;13.15;5.85;;;;;;;-0.70;100.00;99382.25;5087337;28;20067;-81
2023/01/26 15:04:00;;;;;;;9.07;4.78;;;;;;;-0.79;100.00;99381.06;5087864;28;20051;-81
2023/01/26 15:06:28;;;;;;;8.65;4.80;;;;;;;-0.78;100.00;99375.63;5088954;28;20074;-81
2023/01/26 15:09:00;;;;;;;10.63;4.75;;;;;;;-0.64;100.00;99390.66;5077537;28;20129;-81
2023/01/26 15:14:37;;;;;;;11.43;6.03;;;;;;;-0.85;100.00;99357.47;5077522;28;20056;-81
2023/01/26 15:17:04;;;;;;;11.60;5.88;;;;;;;-0.81;100.00;99367.81;5097074;28;20510;-81
2023/01/26 15:19:38;;;;;;;13.55;5.38;;;;;;;-0.65;100.00;99393.44;5091567;28;20046;-81
2023/01/26 15:22:05;;;;;;;15.10;5.95;;;;;;;-0.71;100.00;99373.34;5081276;28;20498;-81
2023/01/26 15:24:32;;;;;;;12.80;5.43;;;;;;;-0.65;100.00;99385.44;5089769;28;20051;-81
2023/01/26 15:27:06;;;;;;;15.90;5.00;;;;;;;-0.69;100.00;99397.28;5090248;28;20047;-81
2023/01/26 15:29:34;;;;;;;13.15;6.00;;;;;;;-0.95;100.00;99368.78;5082912;28;20044;-81
2023/01/26 15:32:01;;;;;;;14.75;5.97;;;;;;;-0.90;100.00;99381.81;5089285;28;20076;-82
2023/01/26 15:34:33;;;;;;;13.68;5.85;;;;;;;-0.95;100.00;99373.25;5085272;28;20056;-81
2023/01/26 15:37:04;;;;;;;13.55;5.75;;;;;;;-0.98;100.00;99370.81;5070746;28;20407;-81
2023/01/26 15:39:30;;;;;;;16.08;6.53;;;;;;;-0.95;100.00;99368.78;5089261;28;20159;-81
2023/01/26 15:42:07;;;;;;;16.67;6.18;;;;;;;-0.80;100.00;99377.56;5079675;28;20040;-81
2023/01/26 15:44:35;;;;;;;15.98;6.18;;;;;;;-0.95;100.00;99374.13;5078670;28;20047;-82
2023/01/26 15:47:02;;;;;;;11.10;6.28;;;;;;;-0.97;100.00;99377.84;5077148;28;20059;-81
2023/01/26 15:49:28;;;;;;;15.00;6.55;;;;;;;-1.05;100.00;99367.72;5083738;28;20135;-81
2023/01/26 15:51:55;;;;;;;16.95;7.70;;;;;;;-0.96;100.00;99382.25;5084332;28;20043;-84
2023/01/26 15:54:22;;;;;;;17.42;6.82;;;;;;;-0.96;100.00;99379.56;5092644;28;20052;-79
2023/01/26 15:56:49;;;;;;;18.98;8.50;;;;;;;-1.00;100.00;99362.91;5094639;28;20055;-78
2023/01/26 15:59:15;;;;;;;21.88;7.63;;;;;;;-1.08;100.00;99366.09;5094480;28;20067;-79
2023/01/26 16:01:43;;;;;;;19.20;7.65;;;;;;;-0.91;100.00;99380.09;5084336;28;20418;-79
2023/01/26 16:04:13;;;;;;;19.75;6.85;;;;;;;-0.96;100.00;99387.59;5072659;28;20140;-78
2023/01/26 16:06:40;;;;;;;18.90;7.15;;;;;;;-1.01;100.00;99385.22;5090600;28;20044;-78
2023/01/26 16:09:06;;;;;;;17.75;8.25;;;;;;;-1.13;100.00;99362.03;5094110;28;20067;-79
2023/01/26 16:11:37;;;;;;;16.88;7.07;;;;;;;-0.99;100.00;99390.47;5094495;28;20052;-79
2023/01/26 16:14:03;;;;;;;16.48;6.82;;;;;;;-0.84;100.00;99399.19;5093622;28;20080;-79
2023/01/26 16:16:30;;;;;;;22.15;7.43;;;;;;;-0.95;100.00;99410.63;5094295;28;20491;-79
2023/01/26 16:18:58;;;;;;;14.60;6.82;;;;;;;-1.08;100.00;99387.44;5080277;28;20055;-79
2023/01/26 16:21:29;;;;;;;16.83;7.20;;;;;;;-1.12;100.00;99377.94;5080790;28;20411;-79
2023/01/26 16:23:55;;;;;;;17.25;7.43;;;;;;;-1.13;100.00;99384.25;5093149;28;20048;-79
2023/01/26 16:26:22;;;;;;;17.83;7.68;;;;;;;-1.13;100.00;99383.38;5093983;28;20055;-79
2023/01/26 16:28:48;;;;;;;18.92;7.35;;;;;;;-0.96;100.00;99393.75;5094040;28;20064;-78
2023/01/26 16:31:17;;;;;;;19.00;7.60;;;;;;;-1.09;100.00;99384.88;5075504;28;20055;-79
2023/01/26 16:33:44;;;;;;;19.80;8.05;;;;;;;-1.02;100.00;99396.84;5093192;28;20059;-79
2023/01/26 16:36:14;;;;;;;19.90;8.18;;;;;;;-1.16;100.00;99381.81;5070985;28;20053;-79
2023/01/26 16:38:40;;;;;;;16.38;7.20;;;;;;;-1.09;100.00;99395.56;5090234;28;20044;-78
2023/01/26 16:41:13;;;;;;;20.20;8.40;;;;;;;-1.09;100.00;99385.72;5076886;28;20044;-78
2023/01/26 16:43:41;;;;;;;24.70;9.02;;;;;;;-1.17;100.00;99361.41;5090697;28;20407;-79
2023/01/26 16:46:08;;;;;;;19.52;8.82;;;;;;;-1.03;100.00;99388.97;5089544;28;20052;-79
2023/01/26 16:48:35;;;;;;;25.02;10.02;;;;;;;-1.12;100.00;99385.09;5085289;28;20055;-79
2023/01/26 16:51:11;;;;;;;20.17;9.05;;;;;;;-1.14;100.00;99379.88;5088034;28;20059;-79
2023/01/26 16:53:39;;;;;;;23.30;10.75;;;;;;;-1.17;100.00;99395.25;5090359;28;20047;-78
2023/01/26 16:56:10;;;;;;;16.58;7.85;;;;;;;-1.28;100.00;99394.16;5079032;28;20048;-79
2023/01/26 16:58:36;;;;;;;17.73;8.00;;;;;;;-1.34;100.00;99381.25;5088365;28;20052;-79
2023/01/26 17:01:03;;;;;;;17.83;8.35;;;;;;;-1.35;100.00;99389.34;5091330;28;20044;-78
2023/01/26 17:03:30;;;;;;;15.25;9.55;;;;;;;-1.39;100.00;99380.69;5090412;28;20051;-78
2023/01/26 17:05:57;;;;;;;14.93;8.73;;;;;;;-1.33;100.00;99392.75;5091170;28;20128;-78
2023/01/26 17:08:24;;;;;;;20.33;8.65;;;;;;;-1.19;100.00;99384.69;5090825;28;20044;-79
2023/01/26 17:10:52;;;;;;;13.82;7.80;;;;;;;-1.19;100.00;99384.69;5088962;28;20052;-78
